Time;durP1;ratioP1;P1;durP2;ratioP2;P2;SDS_P1;SDS_P2;PMS_P1;PMS_P2;Temp;Humidity;BMP_temperature;BMP_pressure;BME280_temperature;BME280_humidity;BME280_pressure;Samples;Min_cycle;Max_cycle;Signal;HPM_P1;HPM_P2
2023/11/20 00:00:13;;;;;;;1.30;1.00;;;10.30;99.90;;;;;;5098140;28;20439;-67
2023/11/20 00:02:42;;;;;;;1.27;1.10;;;10.30;99.90;;;;;;5099257;28;20504;-65
2023/11/20 00:05:09;;;;;;;1.17;1.10;;;10.30;99.90;;;;;;5097424;28;20246;-66
2023/11/20 00:07:36;;;;;;;2.30;1.00;;;10.40;99.90;;;;;;5095743;28;20438;-68
2023/11/20 00:10:04;;;;;;;1.30;1.10;;;10.30;99.90;;;;;;5095008;28;20815;-67
2023/11/20 00:12:31;;;;;;;1.10;1.00;;;10.40;99.90;;;;;;5094724;28;20454;-67
2023/11/20 00:14:58;;;;;;;1.85;1.60;;;10.40;99.90;;;;;;5094755;28;20975;-68
2023/11/20 00:17:26;;;;;;;1.30;1.00;;;10.40;99.90;;;;;;5095104;28;20222;-65
2023/11/20 00:19:54;;;;;;;1.50;1.10;;;10.40;99.90;;;;;;5095256;28;20449;-67
2023/11/20 00:22:20;;;;;;;1.07;0.90;;;10.40;99.90;;;;;;5096046;28;20445;-68
2023/11/20 00:24:47;;;;;;;1.00;0.80;;;10.40;99.90;;;;;;5095497;28;20821;-68
2023/11/20 00:27:14;;;;;;;1.00;0.90;;;10.40;99.90;;;;;;5094951;28;20435;-66
2023/11/20 00:29:41;;;;;;;1.10;1.00;;;10.40;99.90;;;;;;5099044;28;20460;-67
2023/11/20 00:32:08;;;;;;;0.97;0.87;;;10.50;99.90;;;;;;5099034;28;20439;-67
2023/11/20 00:34:37;;;;;;;1.20;0.83;;;10.50;99.90;;;;;;5099009;28;20462;-66
2023/11/20 00:37:06;;;;;;;2.45;1.40;;;10.50;99.90;;;;;;5098632;28;20474;-68
2023/11/20 00:39:33;;;;;;;1.45;0.95;;;10.50;99.90;;;;;;5098522;28;20291;-66
2023/11/20 00:42:00;;;;;;;1.10;1.00;;;10.50;99.90;;;;;;5098761;28;20212;-68
2023/11/20 00:44:27;;;;;;;0.93;0.80;;;10.50;99.90;;;;;;5098442;28;20464;-68
2023/11/20 00:46:54;;;;;;;3.70;1.30;;;10.50;99.90;;;;;;5097978;28;20662;-68
2023/11/20 00:49:21;;;;;;;1.60;1.17;;;10.50;99.90;;;;;;5098123;28;20438;-67
2023/11/20 00:51:48;;;;;;;1.00;0.90;;;10.50;99.90;;;;;;5097952;28;20450;-67
2023/11/20 00:54:16;;;;;;;1.30;1.20;;;10.60;99.90;;;;;;5098332;28;20502;-67
2023/11/20 00:56:42;;;;;;;2.13;1.40;;;10.60;99.90;;;;;;5097896;28;20445;-67
2023/11/20 00:59:09;;;;;;;1.20;1.10;;;10.60;99.90;;;;;;5097750;28;20438;-67
2023/11/20 01:01:37;;;;;;;1.27;1.13;;;10.60;99.90;;;;;;5098585;28;20460;-68
2023/11/20 01:04:04;;;;;;;1.53;1.40;;;10.70;99.90;;;;;;5098982;28;20472;-66
2023/11/20 01:06:31;;;;;;;1.63;1.40;;;10.70;99.90;;;;;;5099572;28;20779;-67
2023/11/20 01:08:58;;;;;;;2.50;1.30;;;10.70;99.90;;;;;;5098115;28;20445;-67
2023/11/20 01:11:26;;;;;;;1.87;1.40;;;10.70;99.90;;;;;;5097977;28;20453;-69
2023/11/20 01:13:55;;;;;;;1.70;1.53;;;10.80;99.90;;;;;;5097914;28;20426;-67
2023/11/20 01:16:22;;;;;;;2.00;1.57;;;10.80;99.90;;;;;;5097752;28;20466;-67
2023/11/20 01:18:51;;;;;;;1.50;1.40;;;10.80;99.90;;;;;;5097952;28;20473;-67
2023/11/20 01:21:18;;;;;;;1.50;1.40;;;10.80;99.90;;;;;;5104135;28;20443;-67
2023/11/20 01:23:45;;;;;;;1.70;1.53;;;10.80;99.90;;;;;;5105102;28;20443;-68
2023/11/20 01:26:12;;;;;;;1.50;1.40;;;10.80;99.90;;;;;;5105177;28;20464;-66
2023/11/20 01:28:41;;;;;;;2.47;1.80;;;10.80;99.90;;;;;;5104977;28;20434;-66
2023/11/20 01:31:08;;;;;;;1.77;1.63;;;10.80;99.90;;;;;;5098452;28;20446;-68
2023/11/20 01:33:34;;;;;;;1.73;1.63;;;10.80;99.90;;;;;;5097040;28;20453;-68
2023/11/20 01:36:01;;;;;;;4.40;1.60;;;10.80;99.90;;;;;;5096668;28;20468;-67
2023/11/20 01:38:28;;;;;;;2.10;1.80;;;10.80;99.90;;;;;;5096787;28;20838;-66
2023/11/20 01:40:55;;;;;;;1.80;1.60;;;10.80;99.90;;;;;;5096334;28;20830;-68
2023/11/20 01:43:22;;;;;;;1.83;1.50;;;10.80;99.90;;;;;;5097008;28;20438;-68
2023/11/20 01:45:51;;;;;;;1.93;1.50;;;10.80;99.90;;;;;;5097735;28;20872;-68
2023/11/20 01:48:19;;;;;;;1.50;1.40;;;10.80;99.90;;;;;;5107598;28;20491;-68
2023/11/20 01:50:46;;;;;;;3.53;1.63;;;10.80;99.90;;;;;;5108403;28;20807;-68
2023/11/20 01:53:14;;;;;;;2.20;2.00;;;10.80;99.90;;;;;;5107340;28;20892;-67
2023/11/20 01:55:40;;;;;;;1.60;1.50;;;10.80;99.90;;;;;;5098095;28;20466;-69
2023/11/20 01:58:09;;;;;;;2.27;2.07;;;10.80;99.90;;;;;;5098636;28;20550;-69
2023/11/20 02:00:36;;;;;;;1.52;1.40;;;10.80;99.90;;;;;;5098793;28;20446;-68
2023/11/20 02:03:06;;;;;;;1.60;1.50;;;10.80;99.90;;;;;;5098109;28;20200;-70
2023/11/20 02:05:33;;;;;;;2.37;1.70;;;10.80;99.90;;;;;;5098759;28;20458;-68
2023/11/20 02:07:59;;;;;;;2.77;2.07;;;10.80;99.90;;;;;;5097897;28;20435;-68
2023/11/20 02:10:26;;;;;;;1.50;1.40;;;10.90;99.90;;;;;;5097140;28;20442;-67
2023/11/20 02:12:53;;;;;;;3.80;1.73;;;10.90;99.90;;;;;;5095803;28;20447;-68
2023/11/20 02:15:20;;;;;;;1.80;1.70;;;10.90;99.90;;;;;;5106825;28;20466;-67
2023/11/20 02:17:47;;;;;;;1.50;1.40;;;10.90;99.90;;;;;;5096052;28;20474;-67
2023/11/20 02:20:15;;;;;;;1.43;1.23;;;10.90;99.90;;;;;;5095958;28;20227;-68
2023/11/20 02:22:42;;;;;;;1.70;1.60;;;10.90;99.90;;;;;;5096308;28;20873;-67
2023/11/20 02:25:09;;;;;;;1.80;1.57;;;10.90;99.90;;;;;;5096822;28;20454;-67
2023/11/20 02:27:49;;;;;;;3.60;2.10;;;11.00;99.90;;;;;;5096903;28;20443;-68
2023/11/20 02:30:17;;;;;;;1.67;1.57;;;11.00;99.90;;;;;;5096783;28;20422;-67
2023/11/20 02:32:44;;;;;;;1.40;1.30;;;11.00;99.90;;;;;;5095902;28;20438;-67
2023/11/20 02:35:16;;;;;;;1.50;1.40;;;10.90;99.90;;;;;;5095905;28;20564;-68
2023/11/20 02:37:43;;;;;;;2.40;1.87;;;10.90;99.90;;;;;;5095837;28;20458;-67
2023/11/20 02:40:11;;;;;;;1.87;1.50;;;10.90;99.90;;;;;;5095055;28;20446;-68
2023/11/20 02:42:38;;;;;;;2.47;1.70;;;10.90;99.90;;;;;;5095488;28;20449;-68
2023/11/20 02:45:06;;;;;;;2.73;1.80;;;10.90;99.90;;;;;;5095730;28;20462;-68
2023/11/20 02:47:35;;;;;;;1.40;1.30;;;10.90;99.90;;;;;;5095299;28;20434;-68
2023/11/20 02:50:01;;;;;;;1.63;1.53;;;10.90;99.90;;;;;;5094902;28;20446;-68
2023/11/20 02:52:29;;;;;;;2.23;1.60;;;10.90;99.90;;;;;;5097144;28;20442;-68
2023/11/20 02:54:55;;;;;;;1.77;1.60;;;10.90;99.90;;;;;;5102377;28;20496;-67
2023/11/20 02:57:22;;;;;;;1.60;1.50;;;10.90;99.90;;;;;;5094778;28;20438;-66
2023/11/20 02:59:49;;;;;;;2.17;1.53;;;10.90;99.90;;;;;;5094624;28;20932;-67
2023/11/20 03:02:16;;;;;;;2.53;1.57;;;10.90;99.90;;;;;;5095192;28;20444;-67
2023/11/20 03:04:45;;;;;;;1.80;1.70;;;10.90;99.90;;;;;;5094390;28;20994;-68
2023/11/20 03:07:13;;;;;;;2.90;1.60;;;10.90;99.90;;;;;;5094540;28;20819;-67
2023/11/20 03:09:40;;;;;;;1.77;1.60;;;10.90;99.90;;;;;;5094892;28;20435;-66
2023/11/20 03:12:07;;;;;;;1.70;1.60;;;10.80;99.90;;;;;;5094305;28;20446;-68
2023/11/20 03:14:34;;;;;;;1.50;1.40;;;10.80;99.90;;;;;;5094468;28;20485;-68
2023/11/20 03:17:01;;;;;;;1.70;1.60;;;10.80;99.90;;;;;;5094134;28;20919;-68
2023/11/20 03:19:28;;;;;;;1.93;1.73;;;10.80;99.90;;;;;;5094144;28;20990;-66
2023/11/20 03:21:57;;;;;;;3.07;1.67;;;10.80;99.90;;;;;;5094684;28;20438;-69
2023/11/20 03:24:23;;;;;;;3.10;1.50;;;10.80;99.90;;;;;;5094892;28;20469;-68
2023/11/20 03:26:50;;;;;;;5.30;1.87;;;10.80;99.90;;;;;;5094366;28;20434;-68
2023/11/20 03:29:17;;;;;;;1.30;1.20;;;10.80;99.90;;;;;;5094391;28;20449;-67
2023/11/20 03:31:44;;;;;;;1.63;1.53;;;10.80;99.90;;;;;;5094330;28;20457;-68
2023/11/20 03:34:11;;;;;;;1.63;1.53;;;10.80;99.90;;;;;;5094048;28;20446;-66
2023/11/20 03:36:40;;;;;;;1.50;1.40;;;10.80;99.90;;;;;;5096857;28;20450;-67
2023/11/20 03:39:08;;;;;;;1.33;1.23;;;10.80;99.90;;;;;;5098743;28;20470;-67
2023/11/20 03:41:35;;;;;;;2.00;1.90;;;10.80;99.90;;;;;;5097455;28;20458;-67
2023/11/20 03:44:02;;;;;;;1.57;1.47;;;10.80;99.90;;;;;;5098621;28;20449;-67
2023/11/20 03:46:28;;;;;;;2.70;1.70;;;10.80;99.90;;;;;;5103155;28;20469;-67
2023/11/20 03:48:55;;;;;;;1.50;1.40;;;10.80;99.90;;;;;;5101808;28;20813;-68
2023/11/20 03:51:22;;;;;;;1.73;1.13;;;10.80;99.90;;;;;;5099957;28;20962;-66
2023/11/20 03:53:49;;;;;;;2.43;1.07;;;10.80;99.90;;;;;;5099632;28;20458;-67
2023/11/20 03:56:17;;;;;;;1.67;1.40;;;10.80;99.90;;;;;;5100878;28;20459;-67
2023/11/20 03:58:44;;;;;;;2.03;1.50;;;10.80;99.90;;;;;;5100548;28;20474;-66
2023/11/20 04:01:11;;;;;;;2.87;1.87;;;10.80;99.90;;;;;;5099365;28;20450;-67
2023/11/20 04:03:38;;;;;;;1.40;1.17;;;10.80;99.90;;;;;;5095112;28;20446;-68
2023/11/20 04:06:06;;;;;;;1.33;1.23;;;10.80;99.90;;;;;;5095783;28;20450;-67
2023/11/20 04:08:32;;;;;;;2.20;1.43;;;10.80;99.90;;;;;;5094595;28;20488;-68
2023/11/20 04:12:33;;;;;;;1.33;1.23;;;10.80;99.90;;;;;;5103055;27;1558511;-67
2023/11/20 04:15:00;;;;;;;1.07;1.00;;;10.80;99.90;;;;;;5124649;28;20220;-67
2023/11/20 04:17:26;;;;;;;1.67;1.30;;;10.80;99.90;;;;;;5112063;28;20429;-68
2023/11/20 04:19:53;;;;;;;1.30;1.10;;;10.80;99.90;;;;;;5112236;28;20449;-67
2023/11/20 04:22:21;;;;;;;1.23;1.13;;;10.80;99.90;;;;;;5113275;28;20436;-68
2023/11/20 04:24:48;;;;;;;1.33;1.23;;;10.80;99.90;;;;;;5115897;28;20487;-67
2023/11/20 04:27:14;;;;;;;2.17;1.30;;;10.80;99.90;;;;;;5115255;28;20852;-68
2023/11/20 04:29:43;;;;;;;1.23;1.13;;;10.90;99.90;;;;;;5114804;28;20433;-68
2023/11/20 04:32:09;;;;;;;1.30;1.20;;;10.90;99.90;;;;;;5115586;28;20473;-67
2023/11/20 04:34:36;;;;;;;1.67;1.20;;;10.90;99.90;;;;;;5114530;28;20970;-67
2023/11/20 04:37:03;;;;;;;1.60;1.20;;;10.90;99.90;;;;;;5115564;28;20446;-67
2023/11/20 04:39:30;;;;;;;1.97;1.53;;;10.90;99.90;;;;;;5115585;28;20449;-66
2023/11/20 04:41:58;;;;;;;2.40;1.30;;;10.80;99.90;;;;;;5115969;28;20440;-67
2023/11/20 04:44:24;;;;;;;1.67;1.30;;;10.80;99.90;;;;;;5113158;28;20842;-68
2023/11/20 04:46:53;;;;;;;1.67;1.20;;;10.90;99.90;;;;;;5111974;28;20445;-66
2023/11/20 04:49:20;;;;;;;1.20;1.10;;;10.90;99.90;;;;;;5111187;28;20456;-67
2023/11/20 04:51:46;;;;;;;1.40;1.30;;;10.90;99.90;;;;;;5110789;28;20846;-68
2023/11/20 04:54:13;;;;;;;1.90;1.10;;;10.90;99.90;;;;;;5110672;28;20969;-68
2023/11/20 04:56:40;;;;;;;1.50;1.00;;;10.90;99.90;;;;;;5110346;28;20966;-66
2023/11/20 04:59:07;;;;;;;2.70;1.30;;;10.90;99.90;;;;;;5110774;28;20452;-67
2023/11/20 05:01:35;;;;;;;2.90;1.13;;;10.90;99.90;;;;;;5111224;28;20441;-67
2023/11/20 05:04:03;;;;;;;1.70;1.30;;;10.90;99.90;;;;;;5111305;28;20454;-67
2023/11/20 05:06:31;;;;;;;1.23;1.13;;;10.90;99.90;;;;;;5110965;28;20437;-66
2023/11/20 05:08:57;;;;;;;2.07;1.20;;;10.80;99.90;;;;;;5110307;28;20931;-68
2023/11/20 05:11:24;;;;;;;1.10;1.00;;;10.80;99.90;;;;;;5110404;28;20481;-68
2023/11/20 05:13:51;;;;;;;1.50;1.40;;;10.80;99.90;;;;;;5110789;28;20818;-67
2023/11/20 05:16:18;;;;;;;6.60;1.53;;;10.80;99.90;;;;;;5111353;28;20544;-66
2023/11/20 05:18:44;;;;;;;1.53;1.40;;;10.80;99.90;;;;;;5110905;28;20444;-68
2023/11/20 05:21:13;;;;;;;2.33;1.47;;;10.80;99.90;;;;;;5111530;28;20465;-67
2023/11/20 05:23:40;;;;;;;1.60;1.50;;;10.80;99.90;;;;;;5098585;28;20537;-67
2023/11/20 05:26:06;;;;;;;3.53;1.73;;;10.80;99.90;;;;;;5096714;28;20516;-68
2023/11/20 05:28:33;;;;;;;1.47;1.37;;;10.80;99.90;;;;;;5097130;28;20438;-68
2023/11/20 05:31:00;;;;;;;2.53;1.40;;;10.80;99.90;;;;;;5096869;28;20486;-66
2023/11/20 05:33:27;;;;;;;1.93;1.30;;;10.80;99.90;;;;;;5096687;28;20439;-66
2023/11/20 05:35:53;;;;;;;2.47;1.23;;;10.80;99.90;;;;;;5098569;28;20461;-67
2023/11/20 05:38:22;;;;;;;1.73;1.20;;;10.80;99.90;;;;;;5098589;28;20438;-68
2023/11/20 05:40:48;;;;;;;6.47;1.43;;;10.80;99.90;;;;;;5099594;28;20453;-67
2023/11/20 05:43:15;;;;;;;1.40;1.30;;;10.80;99.90;;;;;;5099107;28;20459;-66
2023/11/20 05:45:42;;;;;;;1.63;1.47;;;10.80;99.90;;;;;;5098324;28;20473;-67
2023/11/20 05:48:09;;;;;;;1.40;1.20;;;10.80;99.90;;;;;;5096939;28;20441;-67
2023/11/20 05:50:35;;;;;;;2.53;1.13;;;10.80;99.90;;;;;;5096676;28;20541;-67
2023/11/20 05:53:03;;;;;;;1.27;1.17;;;10.80;99.90;;;;;;5097071;28;20448;-67
2023/11/20 05:55:32;;;;;;;1.73;1.37;;;10.90;99.90;;;;;;5097091;28;20485;-65
2023/11/20 05:58:00;;;;;;;1.20;1.10;;;10.80;99.90;;;;;;5096429;28;20438;-67
2023/11/20 06:00:27;;;;;;;2.20;1.30;;;10.90;99.90;;;;;;5097030;28;20441;-68
2023/11/20 06:02:53;;;;;;;1.63;1.20;;;10.80;99.90;;;;;;5096681;28;20434;-68
2023/11/20 06:05:21;;;;;;;1.17;1.07;;;10.80;99.90;;;;;;5096481;28;20458;-67
2023/11/20 06:07:48;;;;;;;1.07;1.00;;;10.80;99.90;;;;;;5096785;28;20823;-67
2023/11/20 06:10:14;;;;;;;1.37;0.90;;;10.80;99.90;;;;;;5096913;28;20473;-65
2023/11/20 06:12:42;;;;;;;1.27;0.93;;;10.70;99.90;;;;;;5096393;28;20482;-68
2023/11/20 06:15:10;;;;;;;1.20;0.97;;;10.70;99.90;;;;;;5096977;28;20470;-68
2023/11/20 06:17:38;;;;;;;1.77;1.17;;;10.70;99.90;;;;;;5097331;28;20446;-66
2023/11/20 06:20:06;;;;;;;2.00;1.10;;;10.70;99.90;;;;;;5097505;28;20477;-67
2023/11/20 06:22:33;;;;;;;1.27;1.10;;;10.70;99.90;;;;;;5096959;28;20445;-65
2023/11/20 06:24:59;;;;;;;3.10;1.50;;;10.70;99.90;;;;;;5098334;28;20486;-67
2023/11/20 06:27:26;;;;;;;2.20;1.17;;;10.70;99.90;;;;;;5097355;28;20458;-66
2023/11/20 06:29:54;;;;;;;1.53;1.43;;;10.70;99.90;;;;;;5097062;28;20445;-66
2023/11/20 06:32:22;;;;;;;1.70;1.60;;;10.70;99.90;;;;;;5096729;28;21015;-68
2023/11/20 06:34:49;;;;;;;1.83;1.57;;;10.70;99.90;;;;;;5097288;28;20466;-66
2023/11/20 06:37:16;;;;;;;3.60;1.53;;;10.70;99.90;;;;;;5098647;28;20434;-67
2023/11/20 06:39:43;;;;;;;3.10;1.63;;;10.60;99.90;;;;;;5101472;28;20464;-67
2023/11/20 06:42:10;;;;;;;1.77;1.67;;;10.60;99.90;;;;;;5103203;28;20445;-66
2023/11/20 06:44:38;;;;;;;5.03;1.40;;;10.60;99.90;;;;;;5106175;28;20505;-67
2023/11/20 06:47:07;;;;;;;2.10;1.90;;;10.60;99.90;;;;;;5106898;28;20442;-68
2023/11/20 06:49:34;;;;;;;1.60;1.27;;;10.60;99.90;;;;;;5108254;28;20438;-67
2023/11/20 06:52:01;;;;;;;2.40;1.63;;;10.60;99.90;;;;;;5104344;28;20474;-68
2023/11/20 06:54:28;;;;;;;3.03;1.40;;;10.50;99.90;;;;;;5105826;28;20459;-67
2023/11/20 06:56:54;;;;;;;2.67;1.90;;;10.50;99.90;;;;;;5107410;28;20936;-67
2023/11/20 06:59:21;;;;;;;3.57;1.90;;;10.50;99.90;;;;;;5106284;28;20525;-67
2023/11/20 07:01:48;;;;;;;2.87;1.63;;;10.50;99.90;;;;;;5105432;28;20516;-66
2023/11/20 07:04:18;;;;;;;5.57;1.93;;;10.50;99.90;;;;;;5104808;28;20498;-67
2023/11/20 07:06:44;;;;;;;2.65;1.60;;;10.50;99.90;;;;;;5104452;28;20443;-66
2023/11/20 07:09:14;;;;;;;2.60;1.90;;;10.50;99.90;;;;;;5104755;28;20200;-65
2023/11/20 07:11:41;;;;;;;4.63;2.20;;;10.50;99.90;;;;;;5104326;28;20560;-66
2023/11/20 07:14:09;;;;;;;2.67;1.50;;;10.50;99.90;;;;;;5105244;28;20442;-67
2023/11/20 07:16:35;;;;;;;2.77;1.50;;;10.50;99.90;;;;;;5104734;28;20443;-67
2023/11/20 07:19:02;;;;;;;5.23;1.67;;;10.50;99.90;;;;;;5106016;28;20443;-68
2023/11/20 07:21:30;;;;;;;1.75;1.30;;;10.50;99.90;;;;;;5103618;28;20442;-66
2023/11/20 07:23:57;;;;;;;3.87;2.20;;;10.50;99.90;;;;;;5104489;28;20279;-67
2023/11/20 07:26:25;;;;;;;2.47;1.60;;;10.50;99.90;;;;;;5102890;28;20454;-68
2023/11/20 07:28:52;;;;;;;2.60;2.10;;;10.50;99.90;;;;;;5103761;28;20453;-66
2023/11/20 07:31:25;;;;;;;1.90;1.73;;;10.50;99.90;;;;;;5103633;28;20443;-68
2023/11/20 07:33:52;;;;;;;5.03;1.80;;;10.50;99.90;;;;;;5103238;28;20200;-67
2023/11/20 07:36:20;;;;;;;4.87;1.77;;;10.50;99.90;;;;;;5103880;28;20465;-67
2023/11/20 07:38:48;;;;;;;3.25;1.48;;;10.50;99.90;;;;;;5104214;28;20446;-67
2023/11/20 07:41:16;;;;;;;2.63;1.58;;;10.50;99.90;;;;;;5105845;28;20343;-66
2023/11/20 07:43:43;;;;;;;3.30;1.40;;;10.50;99.90;;;;;;5104593;28;20196;-67
2023/11/20 07:46:10;;;;;;;2.13;1.63;;;10.50;99.90;;;;;;5104153;28;20318;-66
2023/11/20 07:48:37;;;;;;;3.53;2.37;;;10.50;99.90;;;;;;5104378;28;20214;-67
2023/11/20 07:51:04;;;;;;;2.20;1.77;;;10.50;99.90;;;;;;5106978;28;20438;-66
2023/11/20 07:53:31;;;;;;;4.10;1.93;;;10.50;99.90;;;;;;5108005;28;20577;-67
2023/11/20 07:55:59;;;;;;;2.03;1.52;;;10.50;99.90;;;;;;5107318;28;20497;-67
2023/11/20 07:58:26;;;;;;;3.40;2.10;;;10.50;99.90;;;;;;5108952;28;20208;-67
2023/11/20 08:00:53;;;;;;;2.20;1.53;;;10.50;99.90;;;;;;5108887;28;20448;-70
2023/11/20 08:03:20;;;;;;;6.17;2.40;;;10.60;99.90;;;;;;5105431;28;20478;-67
2023/11/20 08:05:46;;;;;;;2.83;1.30;;;10.60;99.90;;;;;;5108184;28;20522;-68
2023/11/20 08:08:14;;;;;;;2.93;1.90;;;10.60;99.90;;;;;;5110504;28;20450;-67
2023/11/20 08:10:41;;;;;;;1.53;1.43;;;10.60;99.90;;;;;;5112284;28;20443;-68
2023/11/20 08:13:09;;;;;;;2.53;1.77;;;10.60;99.90;;;;;;5111599;28;20866;-68
2023/11/20 08:15:37;;;;;;;2.17;1.30;;;10.70;99.90;;;;;;5114004;28;20598;-68
2023/11/20 08:18:04;;;;;;;2.10;1.33;;;10.70;99.90;;;;;;5103841;28;20453;-67
2023/11/20 08:20:31;;;;;;;1.50;1.40;;;10.70;99.90;;;;;;5098602;28;20521;-66
2023/11/20 08:22:58;;;;;;;1.90;1.70;;;10.70;99.90;;;;;;5095551;28;20446;-66
2023/11/20 08:25:25;;;;;;;2.73;1.57;;;10.70;99.90;;;;;;5096235;28;20458;-66
2023/11/20 08:27:52;;;;;;;6.43;3.00;;;10.70;99.90;;;;;;5105718;28;20434;-66
2023/11/20 08:30:20;;;;;;;2.90;1.57;;;10.70;99.90;;;;;;5097046;28;20446;-67
2023/11/20 08:32:47;;;;;;;1.93;1.60;;;10.70;99.90;;;;;;5094160;28;21024;-67
2023/11/20 08:35:13;;;;;;;2.77;1.97;;;10.70;99.90;;;;;;5098111;28;20485;-67
2023/11/20 08:37:40;;;;;;;3.73;1.80;;;10.70;99.90;;;;;;5094909;28;20544;-67
2023/11/20 08:40:08;;;;;;;2.10;1.73;;;10.60;99.90;;;;;;5094242;28;20863;-68
2023/11/20 08:42:36;;;;;;;3.30;1.83;;;10.70;99.90;;;;;;5093952;28;20806;-66
2023/11/20 08:45:04;;;;;;;5.57;2.13;;;10.70;99.90;;;;;;5093835;28;20462;-65
2023/11/20 08:47:35;;;;;;;2.83;1.50;;;10.60;99.90;;;;;;5093821;28;20446;-67
2023/11/20 08:50:02;;;;;;;2.20;2.00;;;10.60;99.90;;;;;;5094100;28;20453;-67
2023/11/20 08:52:29;;;;;;;1.80;1.50;;;10.60;99.90;;;;;;5093623;28;20482;-69
2023/11/20 08:54:56;;;;;;;2.70;1.90;;;10.60;99.90;;;;;;5093926;28;20513;-67
2023/11/20 08:57:23;;;;;;;3.70;1.70;;;10.60;99.90;;;;;;5094976;28;20450;-67
2023/11/20 08:59:52;;;;;;;5.23;2.07;;;10.50;99.90;;;;;;5097684;28;20201;-67
2023/11/20 09:02:19;;;;;;;2.53;1.57;;;10.50;99.90;;;;;;5098556;28;20453;-67
2023/11/20 09:04:47;;;;;;;5.50;1.90;;;10.50;99.90;;;;;;5097705;28;20461;-67
2023/11/20 09:07:14;;;;;;;5.07;2.22;;;10.50;99.90;;;;;;5099907;28;20444;-68
2023/11/20 09:09:41;;;;;;;4.70;2.27;;;10.40;99.90;;;;;;5097493;28;20211;-67
2023/11/20 09:12:09;;;;;;;6.03;3.07;;;10.40;99.90;;;;;;5098369;28;20482;-67
2023/11/20 09:14:35;;;;;;;2.42;2.20;;;10.40;99.90;;;;;;5097346;28;20466;-68
2023/11/20 09:17:02;;;;;;;4.63;2.60;;;10.40;99.90;;;;;;5097371;28;20200;-66
2023/11/20 09:19:29;;;;;;;8.73;2.70;;;10.40;99.90;;;;;;5097759;28;20947;-67
2023/11/20 09:21:57;;;;;;;5.63;2.40;;;10.50;99.90;;;;;;5098994;28;20445;-68
2023/11/20 09:24:25;;;;;;;4.27;2.67;;;10.50;99.90;;;;;;5098507;28;20470;-67
2023/11/20 09:26:52;;;;;;;4.93;2.50;;;10.40;99.90;;;;;;5112838;28;20435;-66
2023/11/20 09:29:19;;;;;;;6.00;2.37;;;10.50;99.90;;;;;;5115903;28;20438;-67
2023/11/20 09:31:48;;;;;;;6.67;3.80;;;10.50;99.90;;;;;;5114990;28;20456;-68
2023/11/20 09:34:15;;;;;;;5.40;2.57;;;10.50;99.90;;;;;;5114207;28;20621;-68
2023/11/20 09:36:43;;;;;;;6.77;2.70;;;10.50;99.90;;;;;;5110644;28;20564;-67
2023/11/20 09:39:13;;;;;;;4.30;3.00;;;10.60;99.90;;;;;;5116282;28;20439;-68
2023/11/20 09:41:43;;;;;;;6.63;2.90;;;10.60;99.90;;;;;;5116528;28;20469;-67
2023/11/20 09:44:11;;;;;;;10.67;3.60;;;10.60;99.90;;;;;;5117256;28;20435;-69
2023/11/20 09:46:41;;;;;;;7.23;3.10;;;10.70;99.90;;;;;;5116583;28;20537;-68
2023/11/20 09:49:09;;;;;;;8.80;3.37;;;10.70;99.90;;;;;;5115986;28;20502;-68
2023/11/20 09:51:37;;;;;;;9.17;3.80;;;10.70;99.90;;;;;;5115223;28;20442;-66
2023/11/20 09:54:08;;;;;;;12.93;3.97;;;10.70;99.90;;;;;;5115978;28;20508;-67
2023/11/20 09:56:36;;;;;;;7.53;3.50;;;10.70;99.90;;;;;;5111983;28;20438;-67
2023/11/20 09:59:04;;;;;;;6.17;3.60;;;10.80;99.90;;;;;;5112378;28;20438;-67
2023/11/20 10:01:31;;;;;;;10.67;4.00;;;10.80;99.90;;;;;;5113287;28;20477;-67
2023/11/20 10:04:00;;;;;;;6.63;3.10;;;10.80;99.90;;;;;;5112731;28;20442;-68
2023/11/20 10:06:31;;;;;;;8.70;3.90;;;10.90;99.90;;;;;;5113762;28;20958;-68
2023/11/20 10:08:58;;;;;;;10.57;3.13;;;10.90;99.90;;;;;;5113339;28;20423;-67
2023/11/20 10:11:24;;;;;;;10.17;3.60;;;11.00;99.90;;;;;;5115128;28;20518;-68
2023/11/20 10:13:54;;;;;;;9.87;3.37;;;11.00;99.90;;;;;;5113908;28;20482;-67
2023/11/20 10:16:22;;;;;;;12.60;3.70;;;11.00;99.90;;;;;;5112537;28;20470;-65
2023/11/20 10:18:49;;;;;;;6.93;3.40;;;11.00;99.90;;;;;;5113831;28;20443;-65
2023/11/20 10:21:20;;;;;;;8.40;3.20;;;11.10;99.90;;;;;;5112635;28;20439;-65
2023/11/20 10:23:47;;;;;;;8.00;3.60;;;11.20;99.90;;;;;;5110738;28;20447;-65
2023/11/20 10:26:14;;;;;;;7.80;3.20;;;11.20;99.90;;;;;;5103415;28;20470;-66
2023/11/20 10:28:41;;;;;;;6.40;2.77;;;11.30;99.90;;;;;;5103752;28;20514;-66
2023/11/20 10:31:10;;;;;;;5.63;2.77;;;11.40;99.90;;;;;;5100404;28;20442;-65
2023/11/20 10:33:37;;;;;;;10.07;3.23;;;11.40;99.90;;;;;;5103193;28;20478;-66
2023/11/20 10:36:12;;;;;;;4.47;3.73;;;11.50;99.90;;;;;;5109360;28;20463;-66
2023/11/20 10:38:39;;;;;;;15.60;4.10;;;11.50;99.90;;;;;;5108175;28;20448;-66
2023/11/20 10:41:08;;;;;;;6.70;3.07;;;11.60;99.90;;;;;;5102796;28;20446;-66
2023/11/20 10:43:36;;;;;;;10.07;3.43;;;11.60;99.90;;;;;;5099996;28;20446;-65
2023/11/20 10:46:05;;;;;;;6.37;2.57;;;11.60;99.90;;;;;;5103429;28;20462;-65
2023/11/20 10:48:34;;;;;;;8.40;2.90;;;11.60;99.90;;;;;;5103579;28;20907;-66
2023/11/20 10:51:06;;;;;;;5.70;2.90;;;11.60;99.90;;;;;;5102594;28;20438;-66
2023/11/20 10:53:39;;;;;;;6.90;2.73;;;11.70;99.90;;;;;;5107083;28;20877;-67
2023/11/20 10:56:07;;;;;;;6.27;3.20;;;11.70;99.90;;;;;;5100144;28;20458;-65
2023/11/20 10:58:35;;;;;;;7.83;2.67;;;11.70;99.90;;;;;;5100659;28;20517;-66
2023/11/20 11:01:03;;;;;;;7.00;2.90;;;11.70;99.90;;;;;;5099991;28;20510;-65
2023/11/20 11:03:30;;;;;;;5.73;2.60;;;11.70;99.90;;;;;;5099778;28;20435;-66
2023/11/20 11:06:03;;;;;;;9.43;2.80;;;11.60;99.90;;;;;;5099475;28;20987;-66
2023/11/20 11:08:31;;;;;;;4.60;2.47;;;11.60;99.90;;;;;;5099049;28;20900;-67
2023/11/20 11:10:58;;;;;;;5.43;2.93;;;11.60;99.90;;;;;;5097811;28;20465;-67
2023/11/20 11:13:32;;;;;;;5.87;2.33;;;11.60;99.90;;;;;;5098234;28;20465;-66
2023/11/20 11:16:00;;;;;;;4.83;2.60;;;11.50;99.90;;;;;;5099460;28;20466;-66
2023/11/20 11:18:29;;;;;;;7.70;3.30;;;11.50;99.90;;;;;;5098726;28;20935;-66
2023/11/20 11:20:58;;;;;;;8.50;3.30;;;11.40;99.90;;;;;;5098818;28;20445;-67
2023/11/20 11:23:30;;;;;;;5.57;2.57;;;11.40;99.90;;;;;;5099226;28;20439;-65
2023/11/20 11:26:12;;;;;;;7.17;2.77;;;11.30;99.90;;;;;;5097951;28;20468;-66
2023/11/20 11:28:44;;;;;;;6.70;3.40;;;11.20;99.90;;;;;;5096732;28;20423;-65
2023/11/20 11:31:12;;;;;;;5.30;3.53;;;11.20;99.90;;;;;;5097084;28;20453;-65
2023/11/20 11:34:02;;;;;;;3.60;2.70;;;11.10;99.90;;;;;;5096000;28;20518;-66
2023/11/20 11:36:41;;;;;;;6.00;2.87;;;11.10;99.90;;;;;;5092410;28;20446;-67
2023/11/20 11:39:19;;;;;;;7.83;3.03;;;11.00;99.90;;;;;;5096569;28;20430;-67
2023/11/20 11:42:04;;;;;;;14.20;5.73;;;11.00;99.90;;;;;;5096771;28;20422;-65
2023/11/20 11:44:41;;;;;;;7.27;3.20;;;11.00;99.90;;;;;;5096262;28;20461;-66
2023/11/20 11:47:10;;;;;;;5.20;3.20;;;11.00;99.90;;;;;;5097047;28;20431;-67
2023/11/20 11:49:38;;;;;;;8.20;3.93;;;11.00;99.90;;;;;;5097454;28;20478;-68
2023/11/20 11:52:06;;;;;;;9.53;3.60;;;11.00;99.90;;;;;;5096802;28;20445;-67
2023/11/20 11:54:35;;;;;;;6.67;3.20;;;11.00;99.90;;;;;;5097379;28;20987;-67
2023/11/20 11:57:08;;;;;;;5.90;2.53;;;11.00;99.90;;;;;;5097475;28;20442;-66
2023/11/20 11:59:39;;;;;;;7.80;3.40;;;11.00;99.90;;;;;;5095887;28;20514;-66
2023/11/20 12:02:06;;;;;;;8.93;3.80;;;11.00;99.90;;;;;;5096368;28;20484;-66
2023/11/20 12:05:07;;;;;;;8.70;3.63;;;11.10;99.90;;;;;;5096324;28;20451;-66
2023/11/20 12:08:04;;;;;;;3.43;2.50;;;11.10;99.90;;;;;;5095730;28;20431;-67
2023/11/20 12:10:45;;;;;;;5.33;2.90;;;11.10;99.90;;;;;;5013568;28;20433;-65
2023/11/20 12:13:15;;;;;;;5.13;3.23;;;11.00;99.90;;;;;;5085475;28;20899;-66
2023/11/20 12:15:43;;;;;;;9.23;4.50;;;11.00;99.90;;;;;;5095228;28;20490;-66
2023/11/20 12:18:13;;;;;;;6.47;2.43;;;11.00;99.90;;;;;;5095812;28;20438;-67
2023/11/20 12:20:43;;;;;;;6.73;2.77;;;10.90;99.90;;;;;;5095500;28;20445;-66
2023/11/20 12:23:19;;;;;;;7.87;3.97;;;10.90;99.90;;;;;;5097715;28;20454;-67
2023/11/20 12:25:49;;;;;;;5.93;3.20;;;10.80;99.90;;;;;;5097339;28;20548;-65
2023/11/20 12:28:16;;;;;;;6.67;3.40;;;10.70;99.90;;;;;;5096781;28;20454;-66
2023/11/20 12:30:44;;;;;;;9.73;4.23;;;10.60;99.90;;;;;;5097914;28;20445;-66
2023/11/20 12:33:10;;;;;;;12.83;3.37;;;10.50;99.90;;;;;;5098302;28;20907;-65
2023/11/20 12:35:38;;;;;;;10.33;4.23;;;10.40;99.90;;;;;;5099734;28;20485;-66
2023/11/20 12:38:05;;;;;;;7.83;3.93;;;10.40;99.90;;;;;;5100260;28;20499;-66
2023/11/20 12:40:32;;;;;;;7.00;4.10;;;10.40;99.90;;;;;;5100347;28;20452;-67
2023/11/20 12:43:00;;;;;;;8.47;3.60;;;10.40;99.90;;;;;;5100727;28;20757;-66
2023/11/20 12:45:26;;;;;;;7.23;4.20;;;10.40;99.90;;;;;;5100074;28;20461;-66
2023/11/20 12:47:53;;;;;;;9.73;3.80;;;10.50;99.90;;;;;;5100908;28;20525;-65
2023/11/20 12:50:22;;;;;;;12.10;4.73;;;10.50;99.90;;;;;;5099791;28;20541;-65